createdAt,value
2023-03-02T00:02:32.559Z,0.00
2023-03-02T00:07:33.273Z,0.00
2023-03-02T00:12:33.991Z,0.00
2023-03-02T00:17:34.734Z,0.00
2023-03-02T00:22:35.532Z,0.00
2023-03-02T00:27:36.242Z,0.00
2023-03-02T00:32:37.028Z,0.00
2023-03-02T00:37:37.694Z,0.00
2023-03-02T00:42:38.420Z,0.00
2023-03-02T00:47:40.626Z,0.00
2023-03-02T00:52:39.683Z,0.00
2023-03-02T00:57:40.408Z,0.00
2023-03-02T01:02:41.229Z,0.00
2023-03-02T01:07:41.962Z,0.00
2023-03-02T01:12:42.656Z,0.00
2023-03-02T01:17:43.364Z,0.00
2023-03-02T01:22:44.095Z,0.00
2023-03-02T01:27:44.801Z,0.00
2023-03-02T01:32:45.515Z,0.00
2023-03-02T01:37:46.252Z,0.00
2023-03-02T01:43:22.494Z,0.00
2023-03-02T01:47:47.601Z,0.00
2023-03-02T01:52:48.334Z,0.00
2023-03-02T01:57:49.009Z,0.00
2023-03-02T02:02:49.721Z,0.00
2023-03-02T02:07:50.457Z,0.00
2023-03-02T02:12:51.161Z,0.00
2023-03-02T02:17:51.889Z,0.00
2023-03-02T02:22:52.630Z,0.00
2023-03-02T02:27:53.328Z,0.00
2023-03-02T02:32:54.122Z,0.00
2023-03-02T02:37:54.840Z,0.00
2023-03-02T02:42:55.531Z,0.00
2023-03-02T02:47:56.235Z,0.00
2023-03-02T02:52:56.994Z,0.00
2023-03-02T02:57:57.650Z,0.00
2023-03-02T03:02:58.380Z,0.00
2023-03-02T03:07:59.085Z,0.00
2023-03-02T03:12:59.782Z,0.00
2023-03-02T03:18:00.496Z,0.00
2023-03-02T03:23:01.220Z,0.00
2023-03-02T03:28:01.898Z,0.00
2023-03-02T03:33:02.628Z,0.00
2023-03-02T03:38:03.338Z,0.00
2023-03-02T03:43:04.025Z,0.00
2023-03-02T03:48:04.740Z,0.00
2023-03-02T03:53:05.452Z,0.00
2023-03-02T03:58:06.195Z,0.00
2023-03-02T04:03:06.898Z,0.00
2023-03-02T04:08:07.624Z,0.00
2023-03-02T04:13:08.552Z,0.00
2023-03-02T04:18:09.237Z,0.00
2023-03-02T04:23:09.942Z,0.00
2023-03-02T04:28:10.686Z,0.00
2023-03-02T04:33:11.419Z,0.00
2023-03-02T04:38:12.121Z,0.00
2023-03-02T04:43:12.839Z,0.00
2023-03-02T04:48:13.541Z,0.00
2023-03-02T04:53:14.240Z,0.00
2023-03-02T04:58:14.989Z,0.00
2023-03-02T05:03:15.663Z,0.00
2023-03-02T05:08:23.386Z,0.00
2023-03-02T05:13:17.067Z,0.00
2023-03-02T05:18:17.753Z,1.00
2023-03-02T05:23:18.448Z,0.00
2023-03-02T05:28:19.103Z,1.00
2023-03-02T05:33:19.767Z,1.00
2023-03-02T05:38:20.438Z,3.00
2023-03-02T05:43:21.076Z,10.00
2023-03-02T05:48:21.901Z,24.00
2023-03-02T05:53:22.554Z,49.00
2023-03-02T05:58:23.183Z,73.00
2023-03-02T06:03:23.961Z,123.00
2023-03-02T06:08:24.626Z,163.00
2023-03-02T06:13:25.256Z,169.00
2023-03-02T06:18:25.926Z,218.00
2023-03-02T06:23:26.608Z,312.00
2023-03-02T06:28:27.282Z,406.00
2023-03-02T06:33:27.921Z,411.00
2023-03-02T06:38:28.573Z,361.00
2023-03-02T06:43:29.272Z,640.00
2023-03-02T06:48:29.925Z,614.00
2023-03-02T06:53:30.660Z,623.00
2023-03-02T06:58:31.352Z,747.00
2023-03-02T07:03:32.595Z,1025.00
2023-03-02T07:08:32.711Z,951.00
2023-03-02T07:13:33.394Z,903.00
2023-03-02T07:18:34.210Z,1158.00
2023-03-02T07:23:34.794Z,1186.00
2023-03-02T07:28:35.459Z,1202.00
2023-03-02T07:33:36.177Z,1468.00
2023-03-02T07:38:36.795Z,1347.00
2023-03-02T07:43:37.464Z,1430.00
2023-03-02T07:48:38.109Z,1306.00
2023-03-02T07:53:38.794Z,1481.00
2023-03-02T07:58:39.444Z,1894.00
2023-03-02T08:03:40.078Z,1672.00
2023-03-02T08:08:40.792Z,1727.00
2023-03-02T08:13:41.420Z,2062.00
2023-03-02T08:18:42.085Z,2210.00
2023-03-02T08:23:42.821Z,1959.00
2023-03-02T08:28:43.524Z,2162.00
2023-03-02T08:33:44.134Z,2081.00
2023-03-02T08:38:44.796Z,2443.00
2023-03-02T08:43:45.449Z,2289.00
2023-03-02T08:48:46.129Z,2510.00
2023-03-02T08:53:46.783Z,2366.00
2023-03-02T08:58:47.600Z,2313.00
2023-03-02T09:03:48.266Z,2550.00
2023-03-02T09:08:48.936Z,2579.00
2023-03-02T09:13:49.572Z,2600.00
2023-03-02T09:18:50.235Z,3290.00
2023-03-02T09:23:50.899Z,3272.00
2023-03-02T09:28:51.576Z,3040.00
2023-03-02T09:33:52.243Z,3294.00
2023-03-02T09:38:52.997Z,3531.00
2023-03-02T09:43:53.665Z,3537.00
2023-03-02T09:48:54.346Z,3170.00
2023-03-02T09:53:55.050Z,3203.00
2023-03-02T09:58:55.649Z,2810.00
2023-03-02T10:03:56.675Z,2746.00
2023-03-02T10:08:56.841Z,3076.00
2023-03-02T10:13:57.541Z,2926.00
2023-03-02T10:18:58.190Z,3256.00
2023-03-02T10:23:58.889Z,3496.00
2023-03-02T10:28:59.540Z,3406.00
2023-03-02T10:34:00.196Z,3563.00
2023-03-02T10:39:00.928Z,3445.00
2023-03-02T10:44:01.728Z,4046.00
2023-03-02T10:49:02.325Z,3670.00
2023-03-02T10:54:02.967Z,3710.00
2023-03-02T10:59:03.639Z,3546.00
2023-03-02T11:04:04.360Z,3336.00
2023-03-02T11:09:12.978Z,3218.00
2023-03-02T11:14:05.619Z,3864.00
2023-03-02T11:19:06.338Z,4051.00
2023-03-02T11:24:08.773Z,4282.00
2023-03-02T11:29:07.625Z,3564.00
2023-03-02T11:34:17.184Z,3715.00
2023-03-02T11:39:10.093Z,5148.00
2023-03-02T11:44:09.244Z,4076.00
2023-03-02T11:49:09.940Z,5300.00
2023-03-02T11:54:10.669Z,4697.00
2023-03-02T11:59:11.280Z,2942.00
2023-03-02T12:04:11.960Z,6927.00
2023-03-02T12:09:12.786Z,6291.00
2023-03-02T12:14:13.410Z,6076.00
2023-03-02T12:19:14.061Z,5928.00
2023-03-02T12:24:14.710Z,6157.00
2023-03-02T12:29:15.427Z,5994.00
2023-03-02T12:34:16.103Z,6033.00
2023-03-02T12:39:16.755Z,5780.00
2023-03-02T12:44:17.474Z,5789.00
2023-03-02T12:49:18.093Z,5684.00
2023-03-02T12:54:18.748Z,5762.00
2023-03-02T12:59:19.445Z,5423.00
2023-03-02T13:04:20.136Z,5480.00
2023-03-02T13:09:20.755Z,5532.00
2023-03-02T13:14:21.441Z,5398.00
2023-03-02T13:19:22.089Z,4527.00
2023-03-02T13:24:22.726Z,5074.00
2023-03-02T13:29:23.377Z,5236.00
2023-03-02T13:34:24.041Z,4670.00
2023-03-02T13:39:24.682Z,3618.00
2023-03-02T13:44:25.326Z,4051.00
2023-03-02T13:49:26.005Z,3769.00
2023-03-02T13:54:26.692Z,3599.00
2023-03-02T13:59:27.348Z,3350.00
2023-03-02T14:04:28.177Z,2944.00
2023-03-02T14:09:28.901Z,2879.00
2023-03-02T14:14:29.684Z,2476.00
2023-03-02T14:19:30.345Z,2427.00
2023-03-02T14:24:31.032Z,2156.00
2023-03-02T14:29:31.784Z,2016.00
2023-03-02T14:34:32.429Z,2301.00
2023-03-02T14:39:33.102Z,2106.00
2023-03-02T14:44:33.758Z,1759.00
2023-03-02T14:49:34.380Z,1720.00
2023-03-02T14:54:35.056Z,1644.00
2023-03-02T14:59:35.780Z,1729.00
2023-03-02T15:04:36.540Z,1581.00
2023-03-02T15:09:37.150Z,1658.00
2023-03-02T15:14:37.822Z,1360.00
2023-03-02T15:19:38.464Z,1197.00
2023-03-02T15:24:39.156Z,1029.00
2023-03-02T15:29:39.812Z,1174.00
2023-03-02T15:34:40.455Z,1112.00
2023-03-02T15:39:41.331Z,1015.00
2023-03-02T15:44:41.925Z,811.00
2023-03-02T15:49:42.593Z,780.00
2023-03-02T15:54:43.291Z,633.00
2023-03-02T15:59:43.898Z,523.00
2023-03-02T16:04:44.584Z,470.00
2023-03-02T16:09:45.301Z,399.00
2023-03-02T16:14:45.953Z,337.00
2023-03-02T16:19:46.601Z,280.00
2023-03-02T16:24:47.291Z,229.00
2023-03-02T16:29:47.914Z,181.00
2023-03-02T16:34:48.625Z,139.00
2023-03-02T16:39:49.314Z,98.00
2023-03-02T16:44:50.005Z,69.00
2023-03-02T16:49:50.746Z,45.00
2023-03-02T16:54:51.507Z,27.00
2023-03-02T16:59:52.193Z,16.00
2023-03-02T17:04:52.968Z,8.00
2023-03-02T17:09:53.657Z,4.00
2023-03-02T17:14:54.332Z,2.00
2023-03-02T17:19:54.984Z,1.00
2023-03-02T17:24:55.700Z,0.00
2023-03-02T17:30:03.509Z,0.00
2023-03-02T17:34:57.128Z,0.00
2023-03-02T17:39:57.861Z,0.00
2023-03-02T17:44:58.579Z,0.00
2023-03-02T17:49:59.309Z,0.00
2023-03-02T17:55:00.039Z,0.00
2023-03-02T18:00:00.767Z,0.00
2023-03-02T18:05:01.496Z,0.00
2023-03-02T18:10:02.354Z,0.00
2023-03-02T18:15:03.052Z,0.00
2023-03-02T18:20:03.933Z,0.00
2023-03-02T18:25:04.635Z,0.00
2023-03-02T18:30:05.335Z,0.00
2023-03-02T18:35:06.048Z,0.00
2023-03-02T18:40:06.829Z,0.00
2023-03-02T18:45:07.516Z,0.00
2023-03-02T18:50:08.266Z,0.00
2023-03-02T18:55:08.977Z,0.00
2023-03-02T19:00:09.708Z,0.00
2023-03-02T19:05:10.401Z,0.00
2023-03-02T19:10:11.111Z,0.00
2023-03-02T19:15:11.821Z,0.00
2023-03-02T19:20:12.576Z,0.00
2023-03-02T19:25:13.270Z,0.00
2023-03-02T19:30:13.927Z,1.00
2023-03-02T19:35:14.614Z,2.00
2023-03-02T19:40:15.256Z,6.00
2023-03-02T19:45:15.902Z,2.00
2023-03-02T19:50:16.618Z,3.00
2023-03-02T19:55:17.296Z,3.00
2023-03-02T20:00:18.020Z,0.00
2023-03-02T20:05:18.858Z,5.00
2023-03-02T20:10:19.534Z,6.00
2023-03-02T20:15:20.187Z,2.00
2023-03-02T20:20:20.858Z,6.00
2023-03-02T20:25:21.514Z,2.00
2023-03-02T20:30:22.248Z,7.00
2023-03-02T20:35:22.978Z,6.00
2023-03-02T20:40:23.662Z,5.00
2023-03-02T20:45:24.319Z,13.00
2023-03-02T20:50:24.959Z,2.00
2023-03-02T20:55:25.642Z,7.00
2023-03-02T21:00:26.352Z,9.00
2023-03-02T21:05:26.967Z,1.00
2023-03-02T21:10:27.619Z,1.00
2023-03-02T21:15:28.437Z,0.00
2023-03-02T21:20:29.138Z,4.00
2023-03-02T21:25:29.775Z,4.00
2023-03-02T21:30:30.467Z,5.00
2023-03-02T21:35:31.157Z,1.00
2023-03-02T21:40:32.328Z,0.00
2023-03-02T21:45:32.576Z,0.00
2023-03-02T21:50:33.218Z,1.00
2023-03-02T21:55:33.891Z,1.00
2023-03-02T22:00:34.549Z,1.00
2023-03-02T22:05:35.198Z,1.00
2023-03-02T22:10:35.873Z,1.00
2023-03-02T22:15:36.500Z,1.00
2023-03-02T22:20:37.545Z,1.00
2023-03-02T22:25:37.723Z,0.00
2023-03-02T22:30:38.412Z,0.00
2023-03-02T22:35:39.143Z,0.00
2023-03-02T22:40:39.843Z,0.00
2023-03-02T22:45:41.213Z,0.00
2023-03-02T22:50:41.400Z,0.00
2023-03-02T22:55:42.125Z,0.00
2023-03-02T23:00:42.993Z,0.00
2023-03-02T23:05:43.665Z,0.00
2023-03-02T23:10:44.388Z,0.00
2023-03-02T23:15:45.154Z,0.00
2023-03-02T23:20:45.916Z,0.00
2023-03-02T23:25:46.580Z,0.00
2023-03-02T23:30:47.299Z,0.00
2023-03-02T23:35:48.084Z,0.00
2023-03-02T23:40:48.759Z,5.00
2023-03-02T23:45:49.460Z,6.00
2023-03-02T23:50:50.086Z,1.00
2023-03-02T23:55:57.721Z,1.00
